Time;durP1;ratioP1;P1;durP2;ratioP2;P2;SDS_P1;SDS_P2;PMS_P1;PMS_P2;Temp;Humidity;BMP_temperature;BMP_pressure;BME280_temperature;BME280_humidity;BME280_pressure;Samples;Min_cycle;Max_cycle;Signal;HPM_P1;HPM_P2
2022/10/30 00:01:05;;;;;;;13.93;12.50;;;18.00;99.90;;;;;;5062616;28;20475;-81
2022/10/30 00:03:32;;;;;;;16.93;12.80;;;18.00;99.90;;;;;;5062514;28;20576;-83
2022/10/30 00:05:59;;;;;;;13.87;12.57;;;18.00;99.90;;;;;;5066119;28;20851;-83
2022/10/30 00:08:26;;;;;;;14.37;13.00;;;17.90;99.90;;;;;;5056347;28;20504;-81
2022/10/30 00:10:53;;;;;;;14.20;12.80;;;17.90;99.90;;;;;;5052968;28;20501;-80
2022/10/30 00:13:22;;;;;;;13.27;12.03;;;17.90;99.90;;;;;;5053753;28;20493;-80
2022/10/30 00:15:51;;;;;;;14.23;12.83;;;17.90;99.90;;;;;;5053016;28;20474;-80
2022/10/30 00:18:35;;;;;;;;;;;;;;;;;;;;;
2022/10/30 00:21:06;;;;;;;15.43;13.80;;;17.90;99.90;;;;;;5058980;28;20489;-84
2022/10/30 00:23:33;;;;;;;13.00;11.80;;;17.90;99.90;;;;;;5055183;28;21008;-80
2022/10/30 00:26:04;;;;;;;14.97;13.10;;;17.90;99.90;;;;;;5060859;28;20479;-79
2022/10/30 00:28:32;;;;;;;15.03;12.70;;;17.90;99.90;;;;;;5060688;28;20508;-84
2022/10/30 00:31:00;;;;;;;14.60;13.10;;;17.80;99.90;;;;;;5069375;28;20477;-80
2022/10/30 00:33:27;;;;;;;16.63;12.60;;;17.80;99.90;;;;;;5069037;28;20475;-83
2022/10/30 00:35:54;;;;;;;14.40;12.97;;;17.80;99.90;;;;;;5071595;28;20503;-83
2022/10/30 00:38:22;;;;;;;14.10;12.70;;;17.80;99.90;;;;;;5067488;28;20466;-82
2022/10/30 00:40:49;;;;;;;16.03;14.03;;;17.80;99.90;;;;;;5067526;28;20939;-82
2022/10/30 00:43:31;;;;;;;14.70;12.90;;;17.80;99.90;;;;;;5062158;28;20986;-82
2022/10/30 00:46:03;;;;;;;15.20;12.00;;;17.80;99.90;;;;;;5052911;28;20877;-83
2022/10/30 00:48:30;;;;;;;12.83;11.50;;;17.70;99.90;;;;;;5055016;28;20498;-82
2022/10/30 00:50:59;;;;;;;12.70;11.60;;;17.70;99.90;;;;;;5054821;28;20486;-83
2022/10/30 00:53:30;;;;;;;14.43;12.90;;;17.70;99.90;;;;;;5045360;28;20494;-83
2022/10/30 00:56:01;;;;;;;13.67;12.37;;;17.80;99.90;;;;;;5044116;28;20505;-80
2022/10/30 00:58:32;;;;;;;13.60;12.23;;;17.70;99.90;;;;;;5053850;28;20555;-82
2022/10/30 01:01:04;;;;;;;17.57;13.77;;;17.70;99.90;;;;;;5053676;28;20469;-79
2022/10/30 01:03:32;;;;;;;17.80;15.33;;;17.70;99.90;;;;;;5058601;28;20550;-80
2022/10/30 01:06:02;;;;;;;15.70;14.10;;;17.60;99.90;;;;;;5055084;28;20501;-83
2022/10/30 01:08:30;;;;;;;15.03;13.50;;;17.60;99.90;;;;;;5058580;28;20497;-83
2022/10/30 01:10:59;;;;;;;17.70;15.77;;;17.60;99.90;;;;;;5053752;28;20497;-80
2022/10/30 01:13:28;;;;;;;18.43;16.50;;;17.60;99.90;;;;;;5052488;28;20483;-80
2022/10/30 01:16:13;;;;;;;26.60;19.83;;;17.60;99.90;;;;;;5052387;28;20503;-80
2022/10/30 01:18:48;;;;;;;20.10;18.00;;;17.60;99.90;;;;;;5052032;28;20466;-81
2022/10/30 01:21:46;;;;;;;18.67;16.27;;;17.50;99.90;;;;;;5052373;28;20523;-80
2022/10/30 01:24:36;;;;;;;26.33;19.23;;;17.50;99.90;;;;;;5052451;28;20477;-80
2022/10/30 01:27:17;;;;;;;20.93;16.93;;;17.50;99.90;;;;;;5047925;28;20498;-82
2022/10/30 01:29:55;;;;;;;20.77;17.53;;;17.40;99.90;;;;;;5052981;28;20494;-80
2022/10/30 01:32:37;;;;;;;17.60;15.60;;;17.40;99.90;;;;;;5053310;28;20490;-81
2022/10/30 01:35:08;;;;;;;16.87;15.27;;;17.40;99.90;;;;;;5051520;28;20473;-84
2022/10/30 01:37:44;;;;;;;18.40;16.37;;;17.50;99.90;;;;;;5053729;28;20778;-84
2022/10/30 01:40:14;;;;;;;21.13;18.90;;;17.40;99.90;;;;;;5052934;28;20543;-80
2022/10/30 01:42:47;;;;;;;19.10;15.33;;;17.40;99.90;;;;;;5053574;28;20492;-83
2022/10/30 01:45:19;;;;;;;17.03;15.40;;;17.40;99.90;;;;;;5052072;28;20948;-84
2022/10/30 01:48:18;;;;;;;16.60;14.90;;;17.40;99.90;;;;;;5045565;28;20806;-84
2022/10/30 01:50:56;;;;;;;17.53;15.97;;;17.40;99.90;;;;;;5027195;28;20481;-84
2022/10/30 01:53:37;;;;;;;17.53;15.43;;;17.30;99.90;;;;;;5057651;28;20553;-84
2022/10/30 01:56:18;;;;;;;18.17;16.47;;;17.30;99.90;;;;;;5057091;28;20993;-84
2022/10/30 01:58:57;;;;;;;22.17;18.73;;;17.30;99.90;;;;;;5034817;28;20588;-80
2022/10/30 02:01:25;;;;;;;21.03;18.03;;;17.30;99.90;;;;;;5035805;28;20957;-80
2022/10/30 02:03:53;;;;;;;20.00;17.90;;;17.30;99.90;;;;;;5057536;28;20500;-80
2022/10/30 02:06:21;;;;;;;20.70;18.53;;;17.20;99.90;;;;;;5059959;28;20461;-80
2022/10/30 02:12:00;;;;;;;21.73;19.07;;;17.20;99.90;;;;;;5032925;28;20461;-83
2022/10/30 02:14:30;;;;;;;20.27;18.27;;;17.20;99.90;;;;;;5060741;28;20526;-84
2022/10/30 02:17:00;;;;;;;18.63;16.87;;;17.20;99.90;;;;;;5056036;28;20474;-80
2022/10/30 02:19:28;;;;;;;19.43;17.33;;;17.20;99.90;;;;;;5055088;28;20466;-80
2022/10/30 02:21:57;;;;;;;19.60;17.57;;;17.20;99.90;;;;;;5055042;28;20477;-80
2022/10/30 02:24:24;;;;;;;22.13;19.07;;;17.20;99.90;;;;;;5034530;28;20822;-84
2022/10/30 02:26:52;;;;;;;21.93;19.67;;;17.10;99.90;;;;;;5055409;28;20488;-84
2022/10/30 02:29:20;;;;;;;20.50;18.30;;;17.10;99.90;;;;;;5054856;28;20500;-83
2022/10/30 02:31:47;;;;;;;22.20;18.70;;;17.10;99.90;;;;;;5055165;28;20483;-80
2022/10/30 02:34:15;;;;;;;20.13;17.47;;;17.00;99.90;;;;;;5055217;28;20546;-84
2022/10/30 02:36:42;;;;;;;27.20;18.70;;;17.00;99.90;;;;;;5055507;28;20542;-84
2022/10/30 02:39:13;;;;;;;21.43;18.10;;;17.00;99.90;;;;;;5061470;28;20565;-80
2022/10/30 02:41:40;;;;;;;22.30;17.63;;;17.00;99.90;;;;;;5056153;28;20479;-83
2022/10/30 02:44:08;;;;;;;21.37;19.07;;;17.00;99.90;;;;;;5053178;28;20471;-84
2022/10/30 02:46:35;;;;;;;18.40;16.50;;;16.90;99.90;;;;;;5056013;28;20541;-81
2022/10/30 02:49:04;;;;;;;17.40;15.47;;;16.90;99.90;;;;;;5055217;28;20794;-84
2022/10/30 02:51:32;;;;;;;17.47;15.87;;;17.00;99.90;;;;;;5055268;28;20469;-83
2022/10/30 02:54:00;;;;;;;17.63;15.10;;;16.90;99.90;;;;;;5055523;28;20578;-81
2022/10/30 02:56:31;;;;;;;19.80;17.80;;;16.90;99.90;;;;;;5054562;28;20459;-80
2022/10/30 02:58:58;;;;;;;17.57;15.90;;;16.90;99.90;;;;;;5055523;28;20853;-80
2022/10/30 03:01:25;;;;;;;18.33;16.53;;;16.90;99.90;;;;;;5053691;28;20783;-80
2022/10/30 03:03:52;;;;;;;20.33;18.30;;;16.90;99.90;;;;;;5055529;28;20473;-84
2022/10/30 03:06:19;;;;;;;17.20;15.50;;;16.90;99.90;;;;;;5054658;28;20476;-84
2022/10/30 03:08:46;;;;;;;17.77;15.40;;;16.90;99.90;;;;;;5042622;28;20476;-84
2022/10/30 03:11:15;;;;;;;18.73;14.90;;;16.80;99.90;;;;;;5053973;28;20953;-84
2022/10/30 03:13:46;;;;;;;17.17;15.37;;;16.90;99.90;;;;;;5055179;28;20465;-80
2022/10/30 03:16:15;;;;;;;15.70;14.07;;;16.90;99.90;;;;;;5054577;28;20537;-84
2022/10/30 03:18:42;;;;;;;17.13;15.40;;;16.90;99.90;;;;;;5054050;28;20991;-83
2022/10/30 03:21:12;;;;;;;20.90;16.27;;;16.90;99.90;;;;;;5054694;28;20464;-83
2022/10/30 03:23:39;;;;;;;18.10;15.67;;;16.90;99.90;;;;;;5054678;28;20480;-83
2022/10/30 03:26:07;;;;;;;16.87;14.20;;;16.90;99.90;;;;;;5054525;28;20478;-80
2022/10/30 03:28:34;;;;;;;21.00;17.20;;;16.90;99.90;;;;;;5040961;28;20469;-80
2022/10/30 03:31:06;;;;;;;14.63;13.33;;;16.90;99.90;;;;;;5054572;28;20955;-80
2022/10/30 03:33:34;;;;;;;15.33;13.93;;;16.90;99.90;;;;;;5041934;28;20669;-80
2022/10/30 03:36:03;;;;;;;15.70;14.10;;;16.90;99.90;;;;;;5053275;28;20470;-83
2022/10/30 03:38:30;;;;;;;15.63;14.20;;;16.90;99.90;;;;;;5053141;28;20971;-80
2022/10/30 03:40:57;;;;;;;15.77;14.17;;;16.90;99.90;;;;;;5054235;28;20572;-83
2022/10/30 03:43:24;;;;;;;14.43;13.03;;;16.90;99.90;;;;;;5054230;28;20471;-80
2022/10/30 03:45:53;;;;;;;13.77;12.57;;;16.90;99.90;;;;;;5054396;28;20871;-84
2022/10/30 03:48:23;;;;;;;17.37;14.20;;;16.90;99.90;;;;;;5053554;28;20563;-80
2022/10/30 03:50:53;;;;;;;17.37;14.90;;;16.90;99.90;;;;;;5054291;28;20474;-80
2022/10/30 03:53:20;;;;;;;17.80;15.90;;;16.90;99.90;;;;;;5053786;28;20473;-80
2022/10/30 03:55:47;;;;;;;19.10;16.53;;;16.90;99.90;;;;;;5049545;28;20466;-80
2022/10/30 03:58:15;;;;;;;17.30;15.30;;;16.90;99.90;;;;;;5045319;28;20867;-80
2022/10/30 04:00:43;;;;;;;16.50;14.87;;;16.90;99.90;;;;;;5053110;28;20470;-81
2022/10/30 04:03:11;;;;;;;16.73;14.17;;;16.90;99.90;;;;;;5053961;28;20556;-84
2022/10/30 04:05:40;;;;;;;15.53;14.03;;;16.90;99.90;;;;;;5053214;28;20911;-83
2022/10/30 04:08:11;;;;;;;19.57;14.60;;;16.90;99.90;;;;;;5053942;28;20473;-84
2022/10/30 04:10:43;;;;;;;20.67;16.13;;;16.90;99.90;;;;;;5052891;28;20469;-84
2022/10/30 04:13:12;;;;;;;15.40;13.90;;;16.90;99.90;;;;;;5053278;28;20488;-84
2022/10/30 04:15:39;;;;;;;17.93;14.50;;;16.90;99.90;;;;;;5048407;28;20471;-84
2022/10/30 04:18:06;;;;;;;14.67;13.17;;;16.90;99.90;;;;;;5054454;28;20835;-84
2022/10/30 04:20:36;;;;;;;14.40;12.83;;;16.90;99.90;;;;;;5052647;28;20566;-80
2022/10/30 04:23:07;;;;;;;14.53;13.20;;;17.00;99.90;;;;;;5053384;28;20509;-84
2022/10/30 04:25:35;;;;;;;13.30;11.63;;;17.00;99.90;;;;;;5053562;28;20488;-80
2022/10/30 04:28:02;;;;;;;12.47;11.27;;;17.00;99.90;;;;;;5053461;28;20463;-80
2022/10/30 04:30:33;;;;;;;17.07;13.57;;;17.00;99.90;;;;;;5049714;28;20474;-80
2022/10/30 04:33:02;;;;;;;16.00;14.17;;;17.00;99.90;;;;;;5053144;28;20478;-80
2022/10/30 04:35:32;;;;;;;14.37;12.87;;;17.10;99.90;;;;;;5052465;28;20535;-80
2022/10/30 04:38:00;;;;;;;14.90;13.33;;;17.10;99.90;;;;;;5054172;28;20482;-84
2022/10/30 04:40:31;;;;;;;15.40;12.73;;;17.10;99.90;;;;;;5053185;28;20482;-80
2022/10/30 04:42:59;;;;;;;16.93;13.93;;;17.00;99.90;;;;;;5053148;28;20559;-81
2022/10/30 04:45:27;;;;;;;12.70;11.40;;;17.10;99.90;;;;;;5044387;28;20471;-80
2022/10/30 04:47:59;;;;;;;15.53;14.03;;;17.10;99.90;;;;;;5053146;28;20510;-80
2022/10/30 04:50:26;;;;;;;14.77;13.33;;;17.10;99.90;;;;;;5052819;28;20540;-84
2022/10/30 04:53:00;;;;;;;15.40;12.30;;;17.10;99.90;;;;;;5053654;28;20946;-84
2022/10/30 04:55:28;;;;;;;16.83;14.10;;;17.10;99.90;;;;;;5052714;28;20531;-84
2022/10/30 04:57:57;;;;;;;15.10;13.80;;;17.10;99.90;;;;;;5039825;28;20513;-81
2022/10/30 05:00:24;;;;;;;14.20;12.70;;;17.10;99.90;;;;;;5053661;28;20494;-83
2022/10/30 05:02:51;;;;;;;18.83;16.00;;;17.10;99.90;;;;;;5053564;28;20563;-84
2022/10/30 05:05:18;;;;;;;19.93;14.57;;;17.00;99.90;;;;;;5045767;28;20503;-84
2022/10/30 05:07:46;;;;;;;16.40;14.87;;;17.00;99.90;;;;;;5056385;28;20971;-84
2022/10/30 05:10:14;;;;;;;16.90;13.00;;;17.00;99.90;;;;;;5049286;28;20492;-84
2022/10/30 05:12:44;;;;;;;18.57;14.30;;;17.00;99.90;;;;;;5055345;28;20555;-84
2022/10/30 05:15:12;;;;;;;16.10;13.67;;;17.00;99.90;;;;;;5060688;28;20504;-84
2022/10/30 05:17:40;;;;;;;15.33;13.80;;;17.00;99.90;;;;;;5064882;28;20500;-81
2022/10/30 05:20:09;;;;;;;14.47;12.70;;;17.00;99.90;;;;;;5061823;28;20473;-84
2022/10/30 05:22:36;;;;;;;20.33;17.23;;;17.00;99.90;;;;;;5058641;28;20551;-84
2022/10/30 05:25:05;;;;;;;15.13;13.67;;;17.00;99.90;;;;;;5064588;28;20958;-84
2022/10/30 05:27:33;;;;;;;14.37;13.00;;;17.00;99.90;;;;;;5065576;28;20469;-83
2022/10/30 05:30:02;;;;;;;18.23;14.57;;;17.00;99.90;;;;;;5075057;28;20585;-84
2022/10/30 05:32:29;;;;;;;19.10;14.37;;;17.00;99.90;;;;;;5079079;28;20971;-81
2022/10/30 05:34:57;;;;;;;19.50;13.37;;;17.00;99.90;;;;;;5078762;28;20453;-83
2022/10/30 05:37:24;;;;;;;16.37;14.20;;;17.00;99.90;;;;;;5077418;28;20475;-83
2022/10/30 05:39:51;;;;;;;18.30;13.33;;;17.00;99.90;;;;;;5070412;28;20486;-79
2022/10/30 05:42:19;;;;;;;17.00;13.30;;;17.00;99.90;;;;;;5072099;28;20477;-79
2022/10/30 05:44:46;;;;;;;18.37;13.13;;;17.00;99.90;;;;;;5072237;28;20476;-83
2022/10/30 05:47:16;;;;;;;14.60;13.20;;;17.00;99.90;;;;;;5066754;28;20464;-84
2022/10/30 05:49:43;;;;;;;17.03;12.97;;;17.00;99.90;;;;;;5059812;28;20966;-80
2022/10/30 05:52:10;;;;;;;12.57;11.33;;;17.00;99.90;;;;;;5048669;28;20477;-80
2022/10/30 05:54:37;;;;;;;12.70;11.33;;;17.00;99.90;;;;;;5059396;28;21006;-80
2022/10/30 05:57:04;;;;;;;14.37;12.83;;;17.00;99.90;;;;;;5060917;28;20802;-80
2022/10/30 05:59:31;;;;;;;14.47;11.77;;;17.00;99.90;;;;;;5059073;28;20462;-80
2022/10/30 06:01:58;;;;;;;14.10;12.60;;;17.00;99.90;;;;;;5060747;28;20565;-80
2022/10/30 06:04:26;;;;;;;12.73;11.30;;;17.00;99.90;;;;;;5060245;28;20469;-80
2022/10/30 06:06:53;;;;;;;11.30;10.20;;;17.00;99.90;;;;;;5060315;28;20464;-85
2022/10/30 06:09:20;;;;;;;11.83;10.70;;;17.00;99.90;;;;;;5059268;28;20990;-84
2022/10/30 06:11:47;;;;;;;11.07;9.97;;;17.10;99.90;;;;;;5059885;28;20476;-84
2022/10/30 06:14:14;;;;;;;14.30;10.90;;;17.10;99.90;;;;;;5057756;28;20468;-81
2022/10/30 06:16:43;;;;;;;12.20;11.03;;;17.10;99.90;;;;;;5060365;28;20499;-80
2022/10/30 06:19:10;;;;;;;10.40;9.40;;;17.10;99.90;;;;;;5059605;28;20493;-79
2022/10/30 06:21:38;;;;;;;14.57;12.53;;;17.10;99.90;;;;;;5058741;28;20511;-83
2022/10/30 06:24:10;;;;;;;23.90;14.30;;;17.10;99.90;;;;;;5061202;28;20469;-80
2022/10/30 06:26:37;;;;;;;12.10;10.93;;;17.10;99.90;;;;;;5049271;28;20476;-80
2022/10/30 06:29:04;;;;;;;12.87;10.90;;;17.10;99.90;;;;;;5058896;28;20552;-83
2022/10/30 06:31:31;;;;;;;15.23;12.30;;;17.10;99.90;;;;;;5059317;28;20536;-79
2022/10/30 06:33:59;;;;;;;12.30;11.03;;;17.10;99.90;;;;;;5059938;28;20501;-80
2022/10/30 06:36:26;;;;;;;12.07;10.87;;;17.10;99.90;;;;;;5056771;28;20478;-84
2022/10/30 06:38:54;;;;;;;10.50;9.60;;;17.10;99.90;;;;;;5055687;28;20557;-79
2022/10/30 06:41:21;;;;;;;10.43;9.27;;;17.10;99.90;;;;;;5056084;28;20489;-83
2022/10/30 06:43:48;;;;;;;11.03;9.93;;;17.10;99.90;;;;;;5057355;28;20516;-84
2022/10/30 06:46:16;;;;;;;10.70;9.60;;;17.20;99.90;;;;;;5057129;28;20483;-84
2022/10/30 06:48:43;;;;;;;10.20;9.20;;;17.20;99.90;;;;;;5057060;28;20567;-82
2022/10/30 06:51:13;;;;;;;13.10;8.70;;;17.20;99.90;;;;;;5056551;28;20589;-80
2022/10/30 06:53:43;;;;;;;10.27;9.27;;;17.20;99.90;;;;;;5057032;28;20469;-84
2022/10/30 06:56:12;;;;;;;11.10;10.00;;;17.30;99.90;;;;;;5058144;28;20478;-84
2022/10/30 06:58:39;;;;;;;12.83;10.40;;;17.30;99.90;;;;;;5056752;28;20473;-84
2022/10/30 07:01:06;;;;;;;9.80;8.90;;;17.30;99.90;;;;;;5057920;28;20958;-84
2022/10/30 07:03:34;;;;;;;11.47;10.27;;;17.30;99.90;;;;;;5057603;28;20583;-83
2022/10/30 07:06:01;;;;;;;11.03;9.30;;;17.30;99.90;;;;;;5058492;28;20474;-79
2022/10/30 07:08:28;;;;;;;11.00;9.90;;;17.30;99.90;;;;;;5057745;28;20470;-83
2022/10/30 07:10:57;;;;;;;10.27;9.27;;;17.40;99.90;;;;;;5060224;28;20487;-83
2022/10/30 07:13:25;;;;;;;12.50;10.13;;;17.40;99.90;;;;;;5056974;28;20473;-83
2022/10/30 07:15:52;;;;;;;11.10;10.07;;;17.40;99.90;;;;;;5058966;28;20506;-85
2022/10/30 07:18:19;;;;;;;12.43;11.13;;;17.40;99.90;;;;;;5057969;28;20568;-84
2022/10/30 07:20:47;;;;;;;10.50;9.40;;;17.40;99.90;;;;;;5058230;28;20458;-83
2022/10/30 07:23:17;;;;;;;11.63;10.50;;;17.40;99.90;;;;;;5058008;28;20469;-84
2022/10/30 07:25:44;;;;;;;11.50;10.30;;;17.40;99.90;;;;;;5059898;28;20476;-83
2022/10/30 07:28:11;;;;;;;11.40;10.23;;;17.40;99.90;;;;;;5063674;28;20462;-79
2022/10/30 07:30:40;;;;;;;13.83;10.57;;;17.40;99.90;;;;;;5062956;28;20811;-80
2022/10/30 07:33:09;;;;;;;11.67;10.43;;;17.40;99.90;;;;;;5060730;28;20474;-79
2022/10/30 07:35:36;;;;;;;10.10;9.20;;;17.40;99.90;;;;;;5065236;28;20471;-80
2022/10/30 07:38:04;;;;;;;11.60;10.40;;;17.40;99.90;;;;;;5067173;28;20500;-85
2022/10/30 07:40:31;;;;;;;11.60;10.00;;;17.50;99.90;;;;;;5067209;28;20536;-84
2022/10/30 07:42:59;;;;;;;17.77;15.10;;;17.50;99.90;;;;;;5066387;28;20476;-80
2022/10/30 07:45:26;;;;;;;17.20;13.00;;;17.50;99.90;;;;;;5064009;28;20535;-81
2022/10/30 07:47:59;;;;;;;15.73;11.50;;;17.50;99.90;;;;;;5067004;28;20478;-84
2022/10/30 07:50:26;;;;;;;13.80;12.40;;;17.60;99.90;;;;;;5056900;28;20480;-78
2022/10/30 07:52:53;;;;;;;12.33;11.00;;;17.60;99.90;;;;;;5061653;28;20844;-81
2022/10/30 07:55:20;;;;;;;10.63;9.50;;;17.60;99.90;;;;;;5067886;28;20466;-79
2022/10/30 07:57:47;;;;;;;9.00;8.20;;;17.60;99.90;;;;;;5066820;28;20502;-80
2022/10/30 08:00:15;;;;;;;11.57;10.37;;;17.70;99.90;;;;;;5063012;28;20550;-79
2022/10/30 08:02:42;;;;;;;9.70;8.90;;;17.70;99.90;;;;;;5066374;28;20525;-83
2022/10/30 08:05:11;;;;;;;9.67;8.77;;;17.70;99.90;;;;;;5066534;28;20474;-81
2022/10/30 08:07:39;;;;;;;12.83;11.10;;;17.70;99.90;;;;;;5064875;28;20480;-80
2022/10/30 08:10:07;;;;;;;12.13;10.57;;;17.70;99.90;;;;;;5068767;28;20523;-85
2022/10/30 08:12:39;;;;;;;12.53;11.23;;;17.70;99.90;;;;;;5066627;28;20466;-83
2022/10/30 08:15:08;;;;;;;9.70;8.67;;;17.70;99.90;;;;;;5066794;28;20466;-83
2022/10/30 08:17:44;;;;;;;16.53;11.43;;;17.70;99.90;;;;;;5062437;28;20552;-79
2022/10/30 08:20:15;;;;;;;10.57;9.30;;;17.70;99.90;;;;;;5060161;28;20494;-80
2022/10/30 08:22:46;;;;;;;16.93;15.37;;;17.70;99.90;;;;;;5065005;28;20952;-79
2022/10/30 08:25:14;;;;;;;16.83;12.93;;;17.70;99.90;;;;;;5063253;28;20467;-80
2022/10/30 08:27:55;;;;;;;16.43;12.03;;;17.80;99.90;;;;;;5061815;28;20462;-78
2022/10/30 08:30:28;;;;;;;14.00;11.53;;;17.80;99.90;;;;;;5064728;28;20466;-79
2022/10/30 08:32:57;;;;;;;12.67;11.37;;;17.80;99.90;;;;;;5066664;28;20459;-79
2022/10/30 08:35:26;;;;;;;12.47;11.03;;;17.80;99.90;;;;;;5062728;28;20473;-80
2022/10/30 08:37:55;;;;;;;9.47;8.57;;;17.90;99.90;;;;;;5064417;28;20467;-80
2022/10/30 08:40:22;;;;;;;11.43;9.93;;;17.90;99.90;;;;;;5063101;28;20467;-80
2022/10/30 08:42:53;;;;;;;11.30;10.07;;;17.90;99.90;;;;;;5065764;28;20474;-80
2022/10/30 08:45:23;;;;;;;11.90;10.70;;;17.90;99.90;;;;;;5065274;28;20870;-83
2022/10/30 08:47:57;;;;;;;11.33;9.80;;;17.90;99.90;;;;;;5063614;28;20455;-83
2022/10/30 08:50:26;;;;;;;8.80;7.90;;;17.90;99.90;;;;;;5062391;28;20478;-83
2022/10/30 08:52:53;;;;;;;10.70;9.50;;;17.90;99.90;;;;;;5062630;28;20916;-83
2022/10/30 08:55:21;;;;;;;13.00;9.43;;;17.90;99.90;;;;;;5059123;28;20820;-79
2022/10/30 08:58:13;;;;;;;8.60;7.70;;;18.00;99.90;;;;;;5054806;28;20551;-80
2022/10/30 09:00:42;;;;;;;10.87;9.87;;;18.00;99.90;;;;;;5059245;28;20482;-84
2022/10/30 09:03:09;;;;;;;9.23;8.40;;;18.00;99.90;;;;;;5064245;28;20490;-84
2022/10/30 09:05:53;;;;;;;10.87;9.50;;;18.10;99.90;;;;;;5062530;28;20763;-82
2022/10/30 09:08:20;;;;;;;11.00;9.90;;;18.10;99.90;;;;;;5063849;28;20480;-84
2022/10/30 09:10:47;;;;;;;12.80;11.53;;;18.20;99.90;;;;;;5059650;28;20495;-80
2022/10/30 09:13:14;;;;;;;13.10;11.80;;;18.20;99.90;;;;;;5056946;28;20479;-80
2022/10/30 09:15:41;;;;;;;13.50;10.53;;;18.30;99.90;;;;;;5059638;28;20478;-83
2022/10/30 09:18:09;;;;;;;11.73;9.67;;;18.40;99.90;;;;;;5063321;28;20471;-84
2022/10/30 09:20:38;;;;;;;12.40;10.63;;;18.40;99.90;;;;;;5061195;28;20451;-79
2022/10/30 09:23:08;;;;;;;11.10;9.90;;;18.50;99.90;;;;;;5067883;28;20467;-85
2022/10/30 09:25:47;;;;;;;10.77;9.67;;;18.50;99.90;;;;;;5060105;28;20465;-83
2022/10/30 09:28:14;;;;;;;15.47;9.57;;;18.50;99.90;;;;;;5072046;28;20496;-83
2022/10/30 09:30:42;;;;;;;13.43;12.03;;;18.50;99.90;;;;;;5060956;28;20461;-83
2022/10/30 09:33:11;;;;;;;10.90;9.90;;;18.60;99.90;;;;;;5060535;28;20477;-84
2022/10/30 09:35:42;;;;;;;11.43;10.23;;;18.60;99.90;;;;;;5054654;28;20560;-80
2022/10/30 09:38:09;;;;;;;11.30;10.13;;;18.60;99.90;;;;;;5059806;28;20494;-80
2022/10/30 09:40:48;;;;;;;10.93;9.93;;;18.60;99.90;;;;;;5058581;28;20491;-84
2022/10/30 09:43:29;;;;;;;11.13;9.03;;;18.60;99.90;;;;;;5071933;28;20490;-84
2022/10/30 09:46:09;;;;;;;12.47;9.73;;;18.60;99.90;;;;;;5064673;28;20906;-84
2022/10/30 09:49:07;;;;;;;11.53;9.80;;;18.60;99.90;;;;;;5060496;28;20500;-83
2022/10/30 09:51:56;;;;;;;10.30;9.37;;;18.60;99.90;;;;;;5057107;28;20526;-80
2022/10/30 09:54:35;;;;;;;10.23;9.00;;;18.60;99.90;;;;;;5055843;28;20459;-80
2022/10/30 10:00:41;;;;;;;14.53;10.87;;;18.60;99.90;;;;;;5023396;28;20881;-80
2022/10/30 10:03:22;;;;;;;13.27;11.03;;;18.70;99.90;;;;;;5059916;28;20481;-84
2022/10/30 10:05:54;;;;;;;14.70;11.60;;;18.70;99.90;;;;;;5053725;28;20489;-84
2022/10/30 10:08:31;;;;;;;13.37;11.93;;;18.70;99.90;;;;;;5055828;28;20816;-79
2022/10/30 10:11:03;;;;;;;16.70;15.00;;;18.70;99.90;;;;;;5057122;28;20474;-80
2022/10/30 10:13:37;;;;;;;15.30;13.20;;;18.80;99.90;;;;;;5059962;28;20455;-85
2022/10/30 10:16:11;;;;;;;12.67;11.43;;;18.80;99.90;;;;;;5060314;28;20889;-84
2022/10/30 10:19:03;;;;;;;13.63;12.30;;;18.80;99.90;;;;;;5059986;28;20466;-81
2022/10/30 10:21:35;;;;;;;15.03;12.03;;;18.80;99.90;;;;;;5058266;28;20451;-85
2022/10/30 10:24:12;;;;;;;13.23;11.70;;;18.90;99.90;;;;;;5059753;28;20471;-79
2022/10/30 10:26:47;;;;;;;14.03;9.93;;;18.90;99.90;;;;;;5059974;28;20450;-83
2022/10/30 10:29:32;;;;;;;14.00;9.67;;;18.90;99.90;;;;;;5058302;28;20528;-83
2022/10/30 10:32:19;;;;;;;11.07;9.97;;;18.90;99.90;;;;;;5060226;28;20478;-84
2022/10/30 10:34:57;;;;;;;11.43;9.30;;;18.90;99.90;;;;;;5057452;28;20839;-84
2022/10/30 10:37:35;;;;;;;11.93;10.20;;;19.00;99.90;;;;;;5058831;28;20463;-83
2022/10/30 10:40:55;;;;;;;12.03;10.83;;;19.00;99.90;;;;;;5057284;28;20471;-85
2022/10/30 10:43:35;;;;;;;11.60;10.50;;;19.00;99.90;;;;;;5025556;28;20466;-84
2022/10/30 10:46:24;;;;;;;11.20;9.30;;;19.00;99.90;;;;;;5047719;28;20524;-84
2022/10/30 10:49:11;;;;;;;14.17;10.90;;;19.10;99.90;;;;;;5047770;28;20525;-84
2022/10/30 10:51:44;;;;;;;13.00;10.80;;;19.10;99.90;;;;;;5057085;28;20514;-84
2022/10/30 10:54:18;;;;;;;14.27;11.70;;;19.10;99.90;;;;;;5056678;28;20843;-84
2022/10/30 10:56:49;;;;;;;10.83;9.70;;;19.20;99.90;;;;;;5057671;28;20517;-84
2022/10/30 10:59:20;;;;;;;11.17;10.00;;;19.20;99.90;;;;;;5056388;28;20460;-86
2022/10/30 11:02:45;;;;;;;11.00;9.63;;;19.20;99.90;;;;;;5056682;28;20554;-84
2022/10/30 11:05:25;;;;;;;12.90;9.80;;;19.20;99.90;;;;;;5051428;28;20455;-79
2022/10/30 11:07:58;;;;;;;13.60;10.50;;;19.30;99.90;;;;;;5043161;28;20463;-84
2022/10/30 11:10:28;;;;;;;12.63;8.10;;;19.30;99.90;;;;;;5057748;28;20514;-83
2022/10/30 11:12:56;;;;;;;9.77;8.80;;;19.30;99.90;;;;;;5056931;28;20995;-84
2022/10/30 11:15:36;;;;;;;10.57;8.47;;;19.30;99.90;;;;;;5056943;28;20521;-79
2022/10/30 11:18:05;;;;;;;10.53;7.97;;;19.30;99.90;;;;;;5055299;28;20463;-83
2022/10/30 11:20:41;;;;;;;10.40;8.93;;;19.30;99.90;;;;;;5055059;28;20530;-84
2022/10/30 11:23:30;;;;;;;11.60;8.30;;;19.40;99.90;;;;;;5054921;28;20964;-79
2022/10/30 11:25:57;;;;;;;8.73;7.77;;;19.40;99.90;;;;;;5054956;28;20463;-80
2022/10/30 11:28:41;;;;;;;9.87;8.87;;;19.40;99.90;;;;;;5055374;28;20878;-84
2022/10/30 11:31:20;;;;;;;10.37;8.90;;;19.40;99.90;;;;;;5047433;28;20471;-78
2022/10/30 11:33:48;;;;;;;12.00;8.67;;;19.40;99.90;;;;;;5056150;28;20475;-79
2022/10/30 11:36:16;;;;;;;11.50;10.30;;;19.40;99.90;;;;;;5054484;28;20847;-79
2022/10/30 11:38:44;;;;;;;9.30;8.40;;;19.40;99.90;;;;;;5051354;28;20467;-83
2022/10/30 11:41:15;;;;;;;12.50;8.43;;;19.40;99.90;;;;;;5056976;28;20499;-84
2022/10/30 11:43:45;;;;;;;10.67;6.90;;;19.40;99.90;;;;;;5055958;28;20476;-85
2022/10/30 11:46:17;;;;;;;8.07;6.40;;;19.40;99.90;;;;;;5055187;28;20531;-84
2022/10/30 11:48:45;;;;;;;6.90;6.20;;;19.50;99.90;;;;;;5057000;28;20502;-84
2022/10/30 11:51:32;;;;;;;8.87;6.87;;;19.50;99.90;;;;;;5052970;28;20468;-80
2022/10/30 11:54:21;;;;;;;9.27;6.57;;;19.50;99.90;;;;;;5034032;28;20471;-80
2022/10/30 11:56:50;;;;;;;8.80;7.90;;;19.60;99.90;;;;;;5048736;28;20476;-83
2022/10/30 11:59:22;;;;;;;10.30;8.93;;;19.60;99.90;;;;;;5058717;28;20467;-80
2022/10/30 12:02:01;;;;;;;10.63;9.43;;;19.60;99.90;;;;;;5053382;28;21385;-80
2022/10/30 12:04:31;;;;;;;12.00;9.80;;;19.60;99.90;;;;;;5028481;28;20470;-80
2022/10/30 12:07:25;;;;;;;16.97;11.63;;;19.60;99.90;;;;;;5037215;28;20472;-83
2022/10/30 12:09:52;;;;;;;12.53;10.00;;;19.60;99.90;;;;;;5035941;28;20496;-79
2022/10/30 12:12:24;;;;;;;12.50;11.00;;;19.60;99.90;;;;;;5036903;28;20512;-80
2022/10/30 12:14:53;;;;;;;15.20;11.47;;;19.70;99.90;;;;;;5036205;28;20499;-80
2022/10/30 12:17:21;;;;;;;11.83;10.57;;;19.70;99.90;;;;;;5049567;28;20472;-83
2022/10/30 12:19:51;;;;;;;10.33;8.83;;;19.70;99.90;;;;;;5051214;28;20482;-79
2022/10/30 12:22:27;;;;;;;11.83;8.83;;;19.70;99.90;;;;;;5042515;28;20588;-79
2022/10/30 12:24:54;;;;;;;13.77;9.30;;;19.70;99.90;;;;;;5039998;28;20506;-83
2022/10/30 12:27:21;;;;;;;11.63;9.00;;;19.70;99.90;;;;;;5035440;28;20469;-79
2022/10/30 12:30:01;;;;;;;8.70;7.80;;;19.70;99.90;;;;;;5035283;28;20500;-80
2022/10/30 12:32:38;;;;;;;11.23;9.10;;;19.80;99.90;;;;;;5033874;28;20496;-79
2022/10/30 12:35:18;;;;;;;9.60;7.27;;;19.80;99.90;;;;;;5033140;28;20806;-78
2022/10/30 12:37:45;;;;;;;8.40;6.40;;;19.80;99.90;;;;;;5035482;28;20459;-83
2022/10/30 12:40:17;;;;;;;9.27;6.57;;;19.80;99.90;;;;;;5033618;28;20942;-86
2022/10/30 12:42:54;;;;;;;7.80;7.00;;;19.80;99.90;;;;;;5048126;28;20472;-80
2022/10/30 12:45:28;;;;;;;7.70;6.37;;;19.90;99.90;;;;;;5054048;28;20473;-79
2022/10/30 12:48:01;;;;;;;8.13;6.30;;;19.90;99.90;;;;;;5046365;28;20479;-83
2022/10/30 12:50:44;;;;;;;9.77;6.90;;;19.90;99.90;;;;;;5045159;28;20559;-84
2022/10/30 12:53:28;;;;;;;8.07;6.90;;;19.90;99.90;;;;;;5058869;28;20484;-83
2022/10/30 12:56:01;;;;;;;8.10;7.30;;;19.90;99.90;;;;;;5055581;28;20961;-83
2022/10/30 12:58:37;;;;;;;12.23;7.40;;;19.90;99.90;;;;;;5056712;28;20474;-84